sensor_id;sensor_type;location;lat;lon;timestamp;P1;durP1;ratioP1;P2;durP2;ratioP2
55647;SDS011;45266;48.756;9.246;2022-10-15T00:01:05;4.38;;;1.00;;
55647;SDS011;45266;48.756;9.246;2022-10-15T00:02:08;1.10;;;0.82;;
55647;SDS011;45266;48.756;9.246;2022-10-15T00:03:11;3.03;;;0.90;;
55647;SDS011;45266;48.756;9.246;2022-10-15T00:04:12;1.10;;;0.80;;
55647;SDS011;45266;48.756;9.246;2022-10-15T00:05:15;2.60;;;0.85;;
55647;SDS011;45266;48.756;9.246;2022-10-15T00:06:18;2.58;;;1.00;;
55647;SDS011;45266;48.756;9.246;2022-10-15T00:07:21;4.95;;;0.95;;
55647;SDS011;45266;48.756;9.246;2022-10-15T00:08:23;1.02;;;0.80;;
55647;SDS011;45266;48.756;9.246;2022-10-15T00:09:25;1.33;;;1.00;;
55647;SDS011;45266;48.756;9.246;2022-10-15T00:10:27;1.27;;;0.50;;
55647;SDS011;45266;48.756;9.246;2022-10-15T00:11:28;1.73;;;0.68;;
55647;SDS011;45266;48.756;9.246;2022-10-15T00:12:31;2.55;;;0.75;;
55647;SDS011;45266;48.756;9.246;2022-10-15T00:13:33;3.38;;;0.70;;
55647;SDS011;45266;48.756;9.246;2022-10-15T00:14:35;5.18;;;0.82;;
55647;SDS011;45266;48.756;9.246;2022-10-15T00:15:37;3.95;;;0.90;;
55647;SDS011;45266;48.756;9.246;2022-10-15T00:16:39;2.70;;;0.80;;
55647;SDS011;45266;48.756;9.246;2022-10-15T00:17:40;3.13;;;0.85;;
55647;SDS011;45266;48.756;9.246;2022-10-15T00:18:42;0.63;;;0.60;;
55647;SDS011;45266;48.756;9.246;2022-10-15T00:19:44;7.43;;;0.90;;
55647;SDS011;45266;48.756;9.246;2022-10-15T00:20:46;5.18;;;1.00;;
55647;SDS011;45266;48.756;9.246;2022-10-15T00:21:48;0.98;;;0.60;;
55647;SDS011;45266;48.756;9.246;2022-10-15T00:22:50;0.80;;;0.63;;
55647;SDS011;45266;48.756;9.246;2022-10-15T00:23:52;2.40;;;0.68;;
55647;SDS011;45266;48.756;9.246;2022-10-15T00:24:54;1.73;;;1.00;;
55647;SDS011;45266;48.756;9.246;2022-10-15T00:26:03;3.60;;;1.05;;
55647;SDS011;45266;48.756;9.246;2022-10-15T00:27:07;1.05;;;0.70;;
55647;SDS011;45266;48.756;9.246;2022-10-15T00:28:09;2.70;;;0.85;;
55647;SDS011;45266;48.756;9.246;2022-10-15T00:29:11;6.78;;;0.95;;
55647;SDS011;45266;48.756;9.246;2022-10-15T00:30:13;1.60;;;0.73;;
55647;SDS011;45266;48.756;9.246;2022-10-15T00:31:15;1.60;;;0.60;;
55647;SDS011;45266;48.756;9.246;2022-10-15T00:32:18;1.33;;;0.65;;
55647;SDS011;45266;48.756;9.246;2022-10-15T00:33:20;1.58;;;0.75;;
55647;SDS011;45266;48.756;9.246;2022-10-15T00:34:23;2.08;;;0.55;;
55647;SDS011;45266;48.756;9.246;2022-10-15T00:35:24;0.80;;;0.55;;
55647;SDS011;45266;48.756;9.246;2022-10-15T00:36:27;3.08;;;0.82;;
55647;SDS011;45266;48.756;9.246;2022-10-15T00:37:31;2.00;;;0.80;;
55647;SDS011;45266;48.756;9.246;2022-10-15T00:38:35;5.32;;;0.70;;
55647;SDS011;45266;48.756;9.246;2022-10-15T00:39:37;1.33;;;0.70;;
55647;SDS011;45266;48.756;9.246;2022-10-15T00:40:39;0.88;;;0.50;;
55647;SDS011;45266;48.756;9.246;2022-10-15T00:41:42;1.52;;;0.90;;
55647;SDS011;45266;48.756;9.246;2022-10-15T00:42:45;1.10;;;0.55;;
55647;SDS011;45266;48.756;9.246;2022-10-15T00:43:48;2.67;;;0.65;;
55647;SDS011;45266;48.756;9.246;2022-10-15T00:44:55;0.95;;;0.60;;
55647;SDS011;45266;48.756;9.246;2022-10-15T00:45:58;0.52;;;0.50;;
55647;SDS011;45266;48.756;9.246;2022-10-15T00:47:34;1.10;;;0.60;;
55647;SDS011;45266;48.756;9.246;2022-10-15T00:48:47;1.20;;;0.50;;
55647;SDS011;45266;48.756;9.246;2022-10-15T00:49:54;2.15;;;0.90;;
55647;SDS011;45266;48.756;9.246;2022-10-15T00:51:18;0.45;;;0.45;;
55647;SDS011;45266;48.756;9.246;2022-10-15T00:52:23;3.08;;;0.60;;
55647;SDS011;45266;48.756;9.246;2022-10-15T00:53:30;2.35;;;0.50;;
55647;SDS011;45266;48.756;9.246;2022-10-15T00:54:33;1.52;;;0.70;;
55647;SDS011;45266;48.756;9.246;2022-10-15T00:55:41;0.30;;;0.30;;
55647;SDS011;45266;48.756;9.246;2022-10-15T00:56:43;0.47;;;0.40;;
55647;SDS011;45266;48.756;9.246;2022-10-15T00:57:47;3.92;;;0.60;;
55647;SDS011;45266;48.756;9.246;2022-10-15T00:58:50;0.50;;;0.50;;
55647;SDS011;45266;48.756;9.246;2022-10-15T00:59:55;1.00;;;0.52;;
55647;SDS011;45266;48.756;9.246;2022-10-15T01:01:01;1.40;;;0.40;;
55647;SDS011;45266;48.756;9.246;2022-10-15T01:02:04;0.47;;;0.40;;
55647;SDS011;45266;48.756;9.246;2022-10-15T01:03:08;1.83;;;0.50;;
55647;SDS011;45266;48.756;9.246;2022-10-15T01:04:10;3.65;;;0.50;;
55647;SDS011;45266;48.756;9.246;2022-10-15T01:05:13;0.57;;;0.57;;
55647;SDS011;45266;48.756;9.246;2022-10-15T01:06:16;1.20;;;0.45;;
55647;SDS011;45266;48.756;9.246;2022-10-15T01:07:18;1.45;;;0.80;;
55647;SDS011;45266;48.756;9.246;2022-10-15T01:08:20;1.63;;;0.40;;
55647;SDS011;45266;48.756;9.246;2022-10-15T01:09:22;0.40;;;0.40;;
55647;SDS011;45266;48.756;9.246;2022-10-15T01:10:25;0.60;;;0.60;;
55647;SDS011;45266;48.756;9.246;2022-10-15T01:11:44;0.40;;;0.40;;
55647;SDS011;45266;48.756;9.246;2022-10-15T01:12:54;1.10;;;0.60;;
55647;SDS011;45266;48.756;9.246;2022-10-15T01:14:13;0.70;;;0.50;;
55647;SDS011;45266;48.756;9.246;2022-10-15T01:15:27;0.40;;;0.40;;
55647;SDS011;45266;48.756;9.246;2022-10-15T01:16:54;0.60;;;0.47;;
55647;SDS011;45266;48.756;9.246;2022-10-15T01:18:02;3.80;;;0.40;;
55647;SDS011;45266;48.756;9.246;2022-10-15T01:20:56;0.40;;;0.40;;
55647;SDS011;45266;48.756;9.246;2022-10-15T01:24:55;0.75;;;0.52;;
55647;SDS011;45266;48.756;9.246;2022-10-15T01:27:37;0.80;;;0.40;;
55647;SDS011;45266;48.756;9.246;2022-10-15T01:31:51;1.50;;;0.43;;
55647;SDS011;45266;48.756;9.246;2022-10-15T01:36:55;0.95;;;0.50;;
55647;SDS011;45266;48.756;9.246;2022-10-15T01:38:24;1.20;;;0.35;;
55647;SDS011;45266;48.756;9.246;2022-10-15T01:39:51;0.45;;;0.43;;
55647;SDS011;45266;48.756;9.246;2022-10-15T01:42:03;0.30;;;0.30;;
55647;SDS011;45266;48.756;9.246;2022-10-15T01:43:19;2.50;;;0.40;;
55647;SDS011;45266;48.756;9.246;2022-10-15T01:44:53;1.23;;;0.43;;
55647;SDS011;45266;48.756;9.246;2022-10-15T01:46:02;0.47;;;0.40;;
55647;SDS011;45266;48.756;9.246;2022-10-15T01:47:13;2.08;;;0.50;;
55647;SDS011;45266;48.756;9.246;2022-10-15T01:48:21;1.85;;;0.65;;
55647;SDS011;45266;48.756;9.246;2022-10-15T01:49:27;0.45;;;0.40;;
55647;SDS011;45266;48.756;9.246;2022-10-15T01:50:33;0.75;;;0.38;;
55647;SDS011;45266;48.756;9.246;2022-10-15T01:51:39;0.65;;;0.50;;
55647;SDS011;45266;48.756;9.246;2022-10-15T01:52:43;2.58;;;0.40;;
55647;SDS011;45266;48.756;9.246;2022-10-15T01:53:45;0.80;;;0.40;;
55647;SDS011;45266;48.756;9.246;2022-10-15T01:54:49;1.17;;;0.40;;
55647;SDS011;45266;48.756;9.246;2022-10-15T01:55:56;1.00;;;0.50;;
55647;SDS011;45266;48.756;9.246;2022-10-15T01:57:01;0.75;;;0.50;;
55647;SDS011;45266;48.756;9.246;2022-10-15T01:58:04;2.40;;;0.47;;
55647;SDS011;45266;48.756;9.246;2022-10-15T01:59:07;0.82;;;0.50;;
55647;SDS011;45266;48.756;9.246;2022-10-15T02:00:10;0.47;;;0.40;;
55647;SDS011;45266;48.756;9.246;2022-10-15T02:01:12;0.75;;;0.30;;
55647;SDS011;45266;48.756;9.246;2022-10-15T02:02:15;1.55;;;0.50;;
55647;SDS011;45266;48.756;9.246;2022-10-15T02:03:17;2.50;;;0.60;;
55647;SDS011;45266;48.756;9.246;2022-10-15T02:04:20;0.95;;;0.43;;
55647;SDS011;45266;48.756;9.246;2022-10-15T02:05:24;0.85;;;0.32;;
55647;SDS011;45266;48.756;9.246;2022-10-15T02:07:48;3.50;;;0.50;;
55647;SDS011;45266;48.756;9.246;2022-10-15T02:14:59;1.67;;;0.43;;
55647;SDS011;45266;48.756;9.246;2022-10-15T02:16:24;0.40;;;0.40;;
55647;SDS011;45266;48.756;9.246;2022-10-15T02:17:45;1.75;;;0.50;;
55647;SDS011;45266;48.756;9.246;2022-10-15T02:19:20;0.80;;;0.47;;
55647;SDS011;45266;48.756;9.246;2022-10-15T02:21:50;2.10;;;0.60;;
55647;SDS011;45266;48.756;9.246;2022-10-15T02:23:01;2.05;;;0.43;;
55647;SDS011;45266;48.756;9.246;2022-10-15T02:24:24;3.42;;;0.50;;
55647;SDS011;45266;48.756;9.246;2022-10-15T02:25:29;0.63;;;0.40;;
55647;SDS011;45266;48.756;9.246;2022-10-15T02:26:33;1.10;;;0.50;;
55647;SDS011;45266;48.756;9.246;2022-10-15T02:27:36;4.57;;;1.80;;
55647;SDS011;45266;48.756;9.246;2022-10-15T02:28:40;1.55;;;0.52;;
55647;SDS011;45266;48.756;9.246;2022-10-15T02:29:45;0.40;;;0.40;;
55647;SDS011;45266;48.756;9.246;2022-10-15T02:30:50;0.40;;;0.40;;
55647;SDS011;45266;48.756;9.246;2022-10-15T02:31:54;4.28;;;0.60;;
55647;SDS011;45266;48.756;9.246;2022-10-15T02:32:58;4.18;;;0.88;;
55647;SDS011;45266;48.756;9.246;2022-10-15T02:34:02;0.80;;;0.50;;
55647;SDS011;45266;48.756;9.246;2022-10-15T02:35:07;0.90;;;0.40;;
55647;SDS011;45266;48.756;9.246;2022-10-15T02:36:10;2.08;;;0.40;;
55647;SDS011;45266;48.756;9.246;2022-10-15T02:37:13;3.13;;;0.57;;
55647;SDS011;45266;48.756;9.246;2022-10-15T02:38:18;2.45;;;0.50;;
55647;SDS011;45266;48.756;9.246;2022-10-15T02:39:22;4.88;;;0.68;;
55647;SDS011;45266;48.756;9.246;2022-10-15T02:40:26;1.55;;;0.40;;
55647;SDS011;45266;48.756;9.246;2022-10-15T02:41:30;4.25;;;0.65;;
55647;SDS011;45266;48.756;9.246;2022-10-15T02:42:35;1.73;;;0.70;;
55647;SDS011;45266;48.756;9.246;2022-10-15T02:43:38;3.00;;;0.75;;
55647;SDS011;45266;48.756;9.246;2022-10-15T02:44:40;1.38;;;0.50;;
55647;SDS011;45266;48.756;9.246;2022-10-15T02:45:42;2.40;;;0.50;;
55647;SDS011;45266;48.756;9.246;2022-10-15T02:46:44;8.40;;;1.10;;
55647;SDS011;45266;48.756;9.246;2022-10-15T02:47:46;3.03;;;0.52;;
55647;SDS011;45266;48.756;9.246;2022-10-15T02:48:47;1.55;;;0.70;;
55647;SDS011;45266;48.756;9.246;2022-10-15T02:49:49;1.48;;;0.60;;
55647;SDS011;45266;48.756;9.246;2022-10-15T02:50:51;2.22;;;0.75;;
55647;SDS011;45266;48.756;9.246;2022-10-15T02:51:53;2.80;;;0.70;;
55647;SDS011;45266;48.756;9.246;2022-10-15T02:52:54;4.40;;;0.68;;
55647;SDS011;45266;48.756;9.246;2022-10-15T02:53:56;1.50;;;0.47;;
55647;SDS011;45266;48.756;9.246;2022-10-15T02:54:58;3.05;;;0.50;;
55647;SDS011;45266;48.756;9.246;2022-10-15T02:56:00;2.72;;;0.52;;
55647;SDS011;45266;48.756;9.246;2022-10-15T02:57:02;1.08;;;0.43;;
55647;SDS011;45266;48.756;9.246;2022-10-15T02:58:03;0.55;;;0.45;;
55647;SDS011;45266;48.756;9.246;2022-10-15T02:59:05;3.55;;;0.50;;
55647;SDS011;45266;48.756;9.246;2022-10-15T03:00:07;0.47;;;0.30;;
55647;SDS011;45266;48.756;9.246;2022-10-15T03:01:11;2.50;;;0.50;;
55647;SDS011;45266;48.756;9.246;2022-10-15T03:02:13;3.00;;;0.68;;
55647;SDS011;45266;48.756;9.246;2022-10-15T03:03:19;2.03;;;0.57;;
55647;SDS011;45266;48.756;9.246;2022-10-15T03:04:21;1.75;;;0.50;;
55647;SDS011;45266;48.756;9.246;2022-10-15T03:05:23;0.75;;;0.47;;
55647;SDS011;45266;48.756;9.246;2022-10-15T03:06:24;1.45;;;0.68;;
55647;SDS011;45266;48.756;9.246;2022-10-15T03:07:26;1.48;;;0.45;;
55647;SDS011;45266;48.756;9.246;2022-10-15T03:08:28;2.72;;;0.50;;
55647;SDS011;45266;48.756;9.246;2022-10-15T03:09:30;1.23;;;0.65;;
55647;SDS011;45266;48.756;9.246;2022-10-15T03:10:31;1.02;;;0.45;;
55647;SDS011;45266;48.756;9.246;2022-10-15T03:11:33;4.55;;;0.60;;
55647;SDS011;45266;48.756;9.246;2022-10-15T03:12:35;2.05;;;0.30;;
55647;SDS011;45266;48.756;9.246;2022-10-15T03:13:37;1.45;;;0.40;;
55647;SDS011;45266;48.756;9.246;2022-10-15T03:14:40;1.23;;;0.60;;
55647;SDS011;45266;48.756;9.246;2022-10-15T03:15:41;1.42;;;0.50;;
55647;SDS011;45266;48.756;9.246;2022-10-15T03:16:43;1.08;;;0.50;;
55647;SDS011;45266;48.756;9.246;2022-10-15T03:17:45;0.40;;;0.40;;
55647;SDS011;45266;48.756;9.246;2022-10-15T03:18:46;0.95;;;0.50;;
55647;SDS011;45266;48.756;9.246;2022-10-15T03:19:49;3.33;;;0.60;;
55647;SDS011;45266;48.756;9.246;2022-10-15T03:20:52;1.75;;;0.60;;
55647;SDS011;45266;48.756;9.246;2022-10-15T03:21:57;0.68;;;0.50;;
55647;SDS011;45266;48.756;9.246;2022-10-15T03:22:58;7.18;;;1.05;;
55647;SDS011;45266;48.756;9.246;2022-10-15T03:24:00;1.48;;;0.68;;
55647;SDS011;45266;48.756;9.246;2022-10-15T03:25:02;2.35;;;0.50;;
55647;SDS011;45266;48.756;9.246;2022-10-15T03:26:04;0.63;;;0.40;;
55647;SDS011;45266;48.756;9.246;2022-10-15T03:27:06;0.68;;;0.40;;
55647;SDS011;45266;48.756;9.246;2022-10-15T03:28:08;1.08;;;0.47;;
55647;SDS011;45266;48.756;9.246;2022-10-15T03:29:09;2.33;;;0.52;;
55647;SDS011;45266;48.756;9.246;2022-10-15T03:30:11;3.92;;;0.70;;
55647;SDS011;45266;48.756;9.246;2022-10-15T03:31:14;4.72;;;0.70;;
55647;SDS011;45266;48.756;9.246;2022-10-15T03:32:15;1.88;;;0.55;;
55647;SDS011;45266;48.756;9.246;2022-10-15T03:33:17;2.25;;;0.52;;
55647;SDS011;45266;48.756;9.246;2022-10-15T03:34:23;1.65;;;0.50;;
55647;SDS011;45266;48.756;9.246;2022-10-15T03:35:25;2.47;;;0.52;;
55647;SDS011;45266;48.756;9.246;2022-10-15T03:36:26;1.27;;;0.45;;
55647;SDS011;45266;48.756;9.246;2022-10-15T03:37:28;0.63;;;0.30;;
55647;SDS011;45266;48.756;9.246;2022-10-15T03:38:30;0.77;;;0.47;;
55647;SDS011;45266;48.756;9.246;2022-10-15T03:39:32;0.93;;;0.45;;
55647;SDS011;45266;48.756;9.246;2022-10-15T03:40:34;0.68;;;0.30;;
55647;SDS011;45266;48.756;9.246;2022-10-15T03:41:35;2.97;;;0.38;;
55647;SDS011;45266;48.756;9.246;2022-10-15T03:42:37;3.80;;;0.43;;
55647;SDS011;45266;48.756;9.246;2022-10-15T03:43:39;1.73;;;0.47;;
55647;SDS011;45266;48.756;9.246;2022-10-15T03:44:43;0.35;;;0.30;;
55647;SDS011;45266;48.756;9.246;2022-10-15T03:45:45;0.40;;;0.40;;
55647;SDS011;45266;48.756;9.246;2022-10-15T03:46:47;2.67;;;0.40;;
55647;SDS011;45266;48.756;9.246;2022-10-15T03:47:48;0.60;;;0.38;;
55647;SDS011;45266;48.756;9.246;2022-10-15T03:48:50;2.47;;;0.50;;
55647;SDS011;45266;48.756;9.246;2022-10-15T03:49:52;0.40;;;0.40;;
55647;SDS011;45266;48.756;9.246;2022-10-15T03:50:54;3.38;;;0.45;;
55647;SDS011;45266;48.756;9.246;2022-10-15T03:51:56;1.80;;;0.40;;
55647;SDS011;45266;48.756;9.246;2022-10-15T03:52:58;3.42;;;0.50;;
55647;SDS011;45266;48.756;9.246;2022-10-15T03:53:59;1.05;;;0.50;;
55647;SDS011;45266;48.756;9.246;2022-10-15T03:55:01;2.05;;;0.40;;
55647;SDS011;45266;48.756;9.246;2022-10-15T03:56:04;1.05;;;0.32;;
55647;SDS011;45266;48.756;9.246;2022-10-15T03:57:07;5.18;;;0.75;;
55647;SDS011;45266;48.756;9.246;2022-10-15T03:58:10;2.47;;;0.60;;
55647;SDS011;45266;48.756;9.246;2022-10-15T03:59:11;1.05;;;0.40;;
55647;SDS011;45266;48.756;9.246;2022-10-15T04:00:13;3.60;;;1.20;;
55647;SDS011;45266;48.756;9.246;2022-10-15T04:01:16;4.40;;;0.82;;
55647;SDS011;45266;48.756;9.246;2022-10-15T04:02:19;1.27;;;0.40;;
55647;SDS011;45266;48.756;9.246;2022-10-15T04:03:21;0.52;;;0.40;;
55647;SDS011;45266;48.756;9.246;2022-10-15T04:04:23;1.95;;;0.77;;
55647;SDS011;45266;48.756;9.246;2022-10-15T04:05:25;0.40;;;0.40;;
55647;SDS011;45266;48.756;9.246;2022-10-15T04:06:26;0.75;;;0.32;;
55647;SDS011;45266;48.756;9.246;2022-10-15T04:07:28;2.40;;;0.50;;
55647;SDS011;45266;48.756;9.246;2022-10-15T04:08:30;0.32;;;0.32;;
55647;SDS011;45266;48.756;9.246;2022-10-15T04:09:32;0.47;;;0.40;;
55647;SDS011;45266;48.756;9.246;2022-10-15T04:10:34;0.52;;;0.40;;
55647;SDS011;45266;48.756;9.246;2022-10-15T04:11:35;1.08;;;0.60;;
55647;SDS011;45266;48.756;9.246;2022-10-15T04:12:37;3.47;;;0.43;;
55647;SDS011;45266;48.756;9.246;2022-10-15T04:13:39;1.40;;;0.50;;
55647;SDS011;45266;48.756;9.246;2022-10-15T04:14:41;6.78;;;0.80;;
55647;SDS011;45266;48.756;9.246;2022-10-15T04:15:43;2.40;;;0.55;;
55647;SDS011;45266;48.756;9.246;2022-10-15T04:16:44;1.67;;;0.60;;
55647;SDS011;45266;48.756;9.246;2022-10-15T04:17:46;2.92;;;0.50;;
55647;SDS011;45266;48.756;9.246;2022-10-15T04:18:48;3.90;;;0.50;;
55647;SDS011;45266;48.756;9.246;2022-10-15T04:19:50;5.00;;;0.70;;
55647;SDS011;45266;48.756;9.246;2022-10-15T04:20:52;4.50;;;0.50;;
55647;SDS011;45266;48.756;9.246;2022-10-15T04:21:53;4.10;;;0.52;;
55647;SDS011;45266;48.756;9.246;2022-10-15T04:22:55;5.32;;;0.50;;
55647;SDS011;45266;48.756;9.246;2022-10-15T04:23:57;3.55;;;0.50;;
55647;SDS011;45266;48.756;9.246;2022-10-15T04:24:59;2.05;;;0.50;;
55647;SDS011;45266;48.756;9.246;2022-10-15T04:26:00;1.85;;;0.60;;
55647;SDS011;45266;48.756;9.246;2022-10-15T04:27:02;3.22;;;0.60;;
55647;SDS011;45266;48.756;9.246;2022-10-15T04:28:04;7.68;;;0.75;;
55647;SDS011;45266;48.756;9.246;2022-10-15T04:29:06;2.05;;;0.50;;
55647;SDS011;45266;48.756;9.246;2022-10-15T04:30:09;3.53;;;0.50;;
55647;SDS011;45266;48.756;9.246;2022-10-15T04:31:11;1.45;;;0.52;;
55647;SDS011;45266;48.756;9.246;2022-10-15T04:32:13;3.10;;;0.60;;
55647;SDS011;45266;48.756;9.246;2022-10-15T04:33:17;3.45;;;0.88;;
55647;SDS011;45266;48.756;9.246;2022-10-15T04:34:19;1.50;;;0.70;;
55647;SDS011;45266;48.756;9.246;2022-10-15T04:35:21;5.00;;;0.85;;
55647;SDS011;45266;48.756;9.246;2022-10-15T04:36:23;1.90;;;0.80;;
55647;SDS011;45266;48.756;9.246;2022-10-15T04:37:25;4.57;;;1.23;;
55647;SDS011;45266;48.756;9.246;2022-10-15T04:38:27;4.05;;;1.20;;
55647;SDS011;45266;48.756;9.246;2022-10-15T04:39:29;3.60;;;1.02;;
55647;SDS011;45266;48.756;9.246;2022-10-15T04:40:31;3.83;;;1.02;;
55647;SDS011;45266;48.756;9.246;2022-10-15T04:41:32;4.38;;;0.90;;
55647;SDS011;45266;48.756;9.246;2022-10-15T04:42:34;2.28;;;0.80;;
55647;SDS011;45266;48.756;9.246;2022-10-15T04:43:36;7.28;;;0.90;;
55647;SDS011;45266;48.756;9.246;2022-10-15T04:44:39;5.00;;;0.70;;
55647;SDS011;45266;48.756;9.246;2022-10-15T04:45:41;2.17;;;0.75;;
55647;SDS011;45266;48.756;9.246;2022-10-15T04:46:42;3.30;;;1.00;;
55647;SDS011;45266;48.756;9.246;2022-10-15T04:47:44;1.98;;;0.82;;
55647;SDS011;45266;48.756;9.246;2022-10-15T04:48:46;3.47;;;1.13;;
55647;SDS011;45266;48.756;9.246;2022-10-15T04:49:48;9.00;;;1.10;;
55647;SDS011;45266;48.756;9.246;2022-10-15T04:50:50;6.10;;;1.40;;
55647;SDS011;45266;48.756;9.246;2022-10-15T04:51:51;2.83;;;0.80;;
55647;SDS011;45266;48.756;9.246;2022-10-15T04:52:53;3.47;;;1.02;;
55647;SDS011;45266;48.756;9.246;2022-10-15T04:53:55;1.85;;;0.82;;
55647;SDS011;45266;48.756;9.246;2022-10-15T04:54:57;4.00;;;1.00;;
55647;SDS011;45266;48.756;9.246;2022-10-15T04:55:59;5.47;;;1.70;;
55647;SDS011;45266;48.756;9.246;2022-10-15T04:57:05;4.10;;;0.73;;
55647;SDS011;45266;48.756;9.246;2022-10-15T04:58:07;4.97;;;0.80;;
55647;SDS011;45266;48.756;9.246;2022-10-15T04:59:09;3.17;;;0.88;;
55647;SDS011;45266;48.756;9.246;2022-10-15T05:00:11;7.60;;;1.20;;
55647;SDS011;45266;48.756;9.246;2022-10-15T05:01:15;3.10;;;0.88;;
55647;SDS011;45266;48.756;9.246;2022-10-15T05:02:18;3.13;;;0.82;;
55647;SDS011;45266;48.756;9.246;2022-10-15T05:03:20;2.38;;;1.08;;
55647;SDS011;45266;48.756;9.246;2022-10-15T05:04:22;2.17;;;0.73;;
55647;SDS011;45266;48.756;9.246;2022-10-15T05:05:24;3.03;;;0.82;;
55647;SDS011;45266;48.756;9.246;2022-10-15T05:06:25;5.18;;;0.63;;
55647;SDS011;45266;48.756;9.246;2022-10-15T05:07:27;1.05;;;0.77;;
55647;SDS011;45266;48.756;9.246;2022-10-15T05:08:29;2.60;;;0.65;;
55647;SDS011;45266;48.756;9.246;2022-10-15T05:09:32;3.47;;;1.10;;
55647;SDS011;45266;48.756;9.246;2022-10-15T05:10:37;3.08;;;0.80;;
55647;SDS011;45266;48.756;9.246;2022-10-15T05:11:39;0.70;;;0.70;;
55647;SDS011;45266;48.756;9.246;2022-10-15T05:12:40;5.22;;;0.93;;
55647;SDS011;45266;48.756;9.246;2022-10-15T05:13:42;3.53;;;0.95;;
55647;SDS011;45266;48.756;9.246;2022-10-15T05:14:44;1.27;;;0.80;;
55647;SDS011;45266;48.756;9.246;2022-10-15T05:15:46;4.18;;;0.70;;
55647;SDS011;45266;48.756;9.246;2022-10-15T05:16:48;3.90;;;0.70;;
55647;SDS011;45266;48.756;9.246;2022-10-15T05:17:49;5.18;;;0.80;;
55647;SDS011;45266;48.756;9.246;2022-10-15T05:18:53;3.33;;;0.80;;
55647;SDS011;45266;48.756;9.246;2022-10-15T05:19:58;4.07;;;0.80;;
55647;SDS011;45266;48.756;9.246;2022-10-15T05:21:00;3.10;;;0.73;;
55647;SDS011;45266;48.756;9.246;2022-10-15T05:22:02;1.35;;;1.08;;
55647;SDS011;45266;48.756;9.246;2022-10-15T05:23:04;3.15;;;0.60;;
55647;SDS011;45266;48.756;9.246;2022-10-15T05:24:06;3.13;;;0.50;;
55647;SDS011;45266;48.756;9.246;2022-10-15T05:25:08;3.28;;;0.60;;
55647;SDS011;45266;48.756;9.246;2022-10-15T05:26:12;0.80;;;0.68;;
55647;SDS011;45266;48.756;9.246;2022-10-15T05:27:15;1.05;;;0.68;;
55647;SDS011;45266;48.756;9.246;2022-10-15T05:28:18;3.15;;;0.60;;
55647;SDS011;45266;48.756;9.246;2022-10-15T05:29:20;4.13;;;0.70;;
55647;SDS011;45266;48.756;9.246;2022-10-15T05:30:21;0.65;;;0.50;;
55647;SDS011;45266;48.756;9.246;2022-10-15T05:31:24;0.50;;;0.50;;
55647;SDS011;45266;48.756;9.246;2022-10-15T05:32:27;1.75;;;0.68;;
55647;SDS011;45266;48.756;9.246;2022-10-15T05:33:29;2.30;;;0.80;;
55647;SDS011;45266;48.756;9.246;2022-10-15T05:34:31;1.50;;;0.80;;
55647;SDS011;45266;48.756;9.246;2022-10-15T05:35:33;4.20;;;0.90;;
55647;SDS011;45266;48.756;9.246;2022-10-15T05:36:35;3.05;;;0.70;;
55647;SDS011;45266;48.756;9.246;2022-10-15T05:37:37;2.38;;;0.73;;
55647;SDS011;45266;48.756;9.246;2022-10-15T05:38:39;2.58;;;0.70;;
55647;SDS011;45266;48.756;9.246;2022-10-15T05:39:41;7.28;;;0.90;;
55647;SDS011;45266;48.756;9.246;2022-10-15T05:40:46;8.85;;;1.08;;
55647;SDS011;45266;48.756;9.246;2022-10-15T05:41:49;2.47;;;0.90;;
55647;SDS011;45266;48.756;9.246;2022-10-15T05:42:51;4.22;;;0.80;;
55647;SDS011;45266;48.756;9.246;2022-10-15T05:43:54;3.08;;;0.70;;
55647;SDS011;45266;48.756;9.246;2022-10-15T05:44:57;2.78;;;0.93;;
55647;SDS011;45266;48.756;9.246;2022-10-15T05:45:59;3.97;;;0.70;;
55647;SDS011;45266;48.756;9.246;2022-10-15T05:47:01;0.47;;;0.47;;
55647;SDS011;45266;48.756;9.246;2022-10-15T05:48:03;4.00;;;0.85;;
55647;SDS011;45266;48.756;9.246;2022-10-15T05:49:05;2.67;;;0.80;;
55647;SDS011;45266;48.756;9.246;2022-10-15T05:50:07;7.03;;;0.70;;
55647;SDS011;45266;48.756;9.246;2022-10-15T05:51:12;2.17;;;0.70;;
55647;SDS011;45266;48.756;9.246;2022-10-15T05:52:13;1.88;;;0.60;;
55647;SDS011;45266;48.756;9.246;2022-10-15T05:53:17;4.25;;;0.93;;
55647;SDS011;45266;48.756;9.246;2022-10-15T05:54:19;3.08;;;0.70;;
55647;SDS011;45266;48.756;9.246;2022-10-15T05:55:21;4.03;;;1.00;;
55647;SDS011;45266;48.756;9.246;2022-10-15T05:56:23;2.00;;;0.70;;
55647;SDS011;45266;48.756;9.246;2022-10-15T05:57:25;3.63;;;0.88;;
55647;SDS011;45266;48.756;9.246;2022-10-15T05:58:27;3.88;;;0.70;;
55647;SDS011;45266;48.756;9.246;2022-10-15T05:59:36;2.67;;;0.95;;
55647;SDS011;45266;48.756;9.246;2022-10-15T06:00:38;3.85;;;1.00;;
55647;SDS011;45266;48.756;9.246;2022-10-15T06:01:40;3.72;;;1.00;;
55647;SDS011;45266;48.756;9.246;2022-10-15T06:02:41;5.75;;;0.93;;
55647;SDS011;45266;48.756;9.246;2022-10-15T06:03:43;5.97;;;0.80;;
55647;SDS011;45266;48.756;9.246;2022-10-15T06:04:46;4.70;;;0.70;;
55647;SDS011;45266;48.756;9.246;2022-10-15T06:05:48;5.55;;;0.80;;
55647;SDS011;45266;48.756;9.246;2022-10-15T06:06:50;4.03;;;0.82;;
55647;SDS011;45266;48.756;9.246;2022-10-15T06:07:52;1.88;;;0.98;;
55647;SDS011;45266;48.756;9.246;2022-10-15T06:08:54;1.92;;;0.90;;
55647;SDS011;45266;48.756;9.246;2022-10-15T06:09:58;2.92;;;1.00;;
55647;SDS011;45266;48.756;9.246;2022-10-15T06:11:03;4.70;;;1.00;;
55647;SDS011;45266;48.756;9.246;2022-10-15T06:12:09;2.05;;;0.80;;
55647;SDS011;45266;48.756;9.246;2022-10-15T06:13:11;6.32;;;1.08;;
55647;SDS011;45266;48.756;9.246;2022-10-15T06:14:13;2.55;;;1.17;;
55647;SDS011;45266;48.756;9.246;2022-10-15T06:15:15;10.25;;;1.40;;
55647;SDS011;45266;48.756;9.246;2022-10-15T06:16:17;6.47;;;1.15;;
55647;SDS011;45266;48.756;9.246;2022-10-15T06:17:24;8.95;;;1.10;;
55647;SDS011;45266;48.756;9.246;2022-10-15T06:18:26;4.13;;;0.95;;
55647;SDS011;45266;48.756;9.246;2022-10-15T06:19:28;2.38;;;0.82;;
55647;SDS011;45266;48.756;9.246;2022-10-15T06:20:29;4.10;;;0.90;;
55647;SDS011;45266;48.756;9.246;2022-10-15T06:21:31;4.43;;;0.80;;
55647;SDS011;45266;48.756;9.246;2022-10-15T06:22:33;2.90;;;0.75;;
55647;SDS011;45266;48.756;9.246;2022-10-15T06:23:35;5.65;;;0.88;;
55647;SDS011;45266;48.756;9.246;2022-10-15T06:24:37;2.70;;;1.00;;
55647;SDS011;45266;48.756;9.246;2022-10-15T06:25:39;4.90;;;0.85;;
55647;SDS011;45266;48.756;9.246;2022-10-15T06:26:41;1.52;;;0.90;;
55647;SDS011;45266;48.756;9.246;2022-10-15T06:27:42;5.72;;;1.02;;
55647;SDS011;45266;48.756;9.246;2022-10-15T06:28:44;4.18;;;1.05;;
55647;SDS011;45266;48.756;9.246;2022-10-15T06:29:46;2.80;;;1.13;;
55647;SDS011;45266;48.756;9.246;2022-10-15T06:30:48;3.35;;;1.10;;
55647;SDS011;45266;48.756;9.246;2022-10-15T06:31:49;4.20;;;1.05;;
55647;SDS011;45266;48.756;9.246;2022-10-15T06:32:52;3.45;;;0.88;;
55647;SDS011;45266;48.756;9.246;2022-10-15T06:33:54;2.70;;;1.02;;
55647;SDS011;45266;48.756;9.246;2022-10-15T06:34:55;3.00;;;1.13;;
55647;SDS011;45266;48.756;9.246;2022-10-15T06:36:01;4.43;;;1.20;;
55647;SDS011;45266;48.756;9.246;2022-10-15T06:37:04;5.35;;;0.90;;
55647;SDS011;45266;48.756;9.246;2022-10-15T06:38:06;3.33;;;1.10;;
55647;SDS011;45266;48.756;9.246;2022-10-15T06:39:08;3.28;;;1.10;;
55647;SDS011;45266;48.756;9.246;2022-10-15T06:40:11;4.07;;;1.10;;
55647;SDS011;45266;48.756;9.246;2022-10-15T06:41:13;3.03;;;0.93;;
55647;SDS011;45266;48.756;9.246;2022-10-15T06:42:16;2.92;;;1.00;;
55647;SDS011;45266;48.756;9.246;2022-10-15T06:43:18;4.25;;;1.00;;
55647;SDS011;45266;48.756;9.246;2022-10-15T06:44:20;3.80;;;1.00;;
55647;SDS011;45266;48.756;9.246;2022-10-15T06:45:22;5.40;;;1.13;;
55647;SDS011;45266;48.756;9.246;2022-10-15T06:46:23;1.60;;;0.90;;
55647;SDS011;45266;48.756;9.246;2022-10-15T06:47:25;1.27;;;0.90;;